Terminal Aerodrome Forecast
Issued by NWS

Home | Current Version | Previous Version | Text Only | Print | Product List | Glossary On
Versions: 1 2 3 4 5 6 7 8 9 10 11 12
000
FTUS46 KSGX 291726
TAFONT
TAF
KONT 291726Z 2918/3024 VRB04KT P6SM FEW250
     FM292100 26011G18KT P6SM FEW100 FEW200
     FM300400 VRB05KT P6SM FEW200
     FM302100 26011G18KT P6SM FEW100 SCT200=

USA.gov is the U.S. government's official web portal to all federal, state and local government web resources and services.